Time;durP1;ratioP1;P1;durP2;ratioP2;P2;SDS_P1;SDS_P2;PMS_P1;PMS_P2;Temp;Humidity;BMP_temperature;BMP_pressure;BME280_temperature;BME280_humidity;BME280_pressure;Samples;Min_cycle;Max_cycle;Signal;HPM_P1;HPM_P2
2023/09/08 00:00:03;;;;;;;;;;;;;;;15.50;100.00;95965.53;10439163;28;1988;-78
2023/09/08 00:05:10;;;;;;;;;;;;;;;15.58;100.00;95972.97;10472853;28;1430;-79
2023/09/08 00:10:22;;;;;;;;;;;;;;;15.52;100.00;95968.75;10442652;28;1200;-78
2023/09/08 00:15:30;;;;;;;;;;;;;;;15.40;100.00;95976.56;10471683;28;1456;-79
2023/09/08 00:20:34;;;;;;;;;;;;;;;15.36;100.00;95970.94;10467164;28;1910;-79
2023/09/08 00:25:46;;;;;;;;;;;;;;;15.33;100.00;95966.13;10471361;28;2294;-79
2023/09/08 00:30:50;;;;;;;;;;;;;;;15.24;100.00;95964.41;10438338;28;1555;-79
2023/09/08 00:36:02;;;;;;;;;;;;;;;15.22;100.00;95956.59;10455933;28;1479;-78
2023/09/08 00:41:10;;;;;;;;;;;;;;;15.12;100.00;95954.03;10449500;28;1995;-79
2023/09/08 00:46:15;;;;;;;;;;;;;;;15.09;100.00;95947.34;10474828;28;1488;-79
2023/09/08 00:51:19;;;;;;;;;;;;;;;15.02;100.00;95959.66;10463070;28;1196;-79
2023/09/08 00:56:24;;;;;;;;;;;;;;;15.19;100.00;95953.66;10451645;28;1893;-79
2023/09/08 01:01:29;;;;;;;;;;;;;;;15.09;100.00;95957.38;10458887;28;1914;-78
2023/09/08 01:06:37;;;;;;;;;;;;;;;14.97;100.00;95955.13;10476273;28;1527;-78
2023/09/08 01:11:42;;;;;;;;;;;;;;;14.87;100.00;95960.69;10458697;28;1290;-79
2023/09/08 01:16:50;;;;;;;;;;;;;;;15.08;100.00;95959.28;10462628;28;1514;-79
2023/09/08 01:21:56;;;;;;;;;;;;;;;15.03;100.00;95955.84;10456059;28;2494;-79
2023/09/08 01:27:01;;;;;;;;;;;;;;;14.86;100.00;95962.59;10473778;28;1550;-80
2023/09/08 01:32:09;;;;;;;;;;;;;;;14.81;100.00;95954.56;10486171;28;1617;-79
2023/09/08 01:37:13;;;;;;;;;;;;;;;14.80;100.00;95952.16;10475142;28;1736;-78
2023/09/08 01:42:17;;;;;;;;;;;;;;;14.86;100.00;95953.69;10451286;28;5176;-78
2023/09/08 01:47:36;;;;;;;;;;;;;;;14.75;100.00;95958.44;10470791;28;1284;-79
2023/09/08 01:52:48;;;;;;;;;;;;;;;14.67;100.00;95952.91;10496006;28;1492;-79
2023/09/08 01:57:52;;;;;;;;;;;;;;;14.61;100.00;95954.88;10457013;28;1444;-79
2023/09/08 02:03:05;;;;;;;;;;;;;;;14.50;100.00;95951.53;10478269;28;1983;-78
2023/09/08 02:08:13;;;;;;;;;;;;;;;14.64;100.00;95948.09;10453019;28;1546;-78
2023/09/08 02:13:20;;;;;;;;;;;;;;;14.65;100.00;95944.28;10477506;28;1494;-76
2023/09/08 02:18:28;;;;;;;;;;;;;;;14.56;100.00;95947.66;10448245;28;2689;-76
2023/09/08 02:23:33;;;;;;;;;;;;;;;14.48;100.00;95947.53;10479377;28;1518;-78
2023/09/08 02:28:40;;;;;;;;;;;;;;;14.32;100.00;95949.63;10487684;28;1321;-78
2023/09/08 02:33:44;;;;;;;;;;;;;;;14.23;100.00;95954.88;10483353;28;1198;-78
2023/09/08 02:38:48;;;;;;;;;;;;;;;14.21;100.00;95951.66;10477858;28;1910;-79
2023/09/08 02:43:54;;;;;;;;;;;;;;;14.41;100.00;95952.47;10479425;28;1366;-78
2023/09/08 02:48:58;;;;;;;;;;;;;;;14.25;100.00;95941.06;10478105;28;1160;-78
2023/09/08 02:54:07;;;;;;;;;;;;;;;14.10;100.00;95952.91;10477368;28;1378;-78
2023/09/08 02:59:12;;;;;;;;;;;;;;;14.10;100.00;95957.50;10450461;28;1918;-77
2023/09/08 03:04:17;;;;;;;;;;;;;;;14.10;100.00;95955.59;10481808;28;1027;-78
2023/09/08 03:09:24;;;;;;;;;;;;;;;14.13;100.00;95954.22;10484099;28;1304;-79
2023/09/08 03:14:38;;;;;;;;;;;;;;;14.00;100.00;95948.44;10464169;28;2098;-79
2023/09/08 03:20:07;;;;;;;;;;;;;;;13.81;100.00;95946.81;10475301;28;1917;-77
2023/09/08 03:25:13;;;;;;;;;;;;;;;13.66;100.00;95951.28;10461724;28;1499;-77
2023/09/08 03:30:21;;;;;;;;;;;;;;;13.62;100.00;95954.88;10448005;28;1355;-79
2023/09/08 03:35:30;;;;;;;;;;;;;;;13.69;100.00;95958.03;10466942;28;1170;-79
2023/09/08 03:40:34;;;;;;;;;;;;;;;13.74;100.00;95957.94;10476408;28;5304;-79
2023/09/08 03:45:39;;;;;;;;;;;;;;;13.70;100.00;95951.53;10479738;28;1486;-79
2023/09/08 03:51:07;;;;;;;;;;;;;;;13.70;100.00;95956.94;10468041;28;1184;-78
2023/09/08 03:56:14;;;;;;;;;;;;;;;13.64;100.00;95953.50;10446884;28;1747;-79
2023/09/08 04:01:19;;;;;;;;;;;;;;;13.55;100.00;95954.41;10460114;28;1985;-78
2023/09/08 04:06:24;;;;;;;;;;;;;;;13.55;100.00;95965.19;10448153;28;2104;-78
2023/09/08 04:11:28;;;;;;;;;;;;;;;13.51;100.00;95965.00;10470498;28;1068;-78
2023/09/08 04:16:33;;;;;;;;;;;;;;;13.39;100.00;95968.09;10478214;28;1791;-78
2023/09/08 04:21:39;;;;;;;;;;;;;;;13.32;100.00;95973.03;10474477;28;1910;-80
2023/09/08 04:26:44;;;;;;;;;;;;;;;13.31;100.00;95967.91;10466143;28;1548;-78
2023/09/08 04:32:01;;;;;;;;;;;;;;;13.36;100.00;95965.13;10488992;28;1482;-79
2023/09/08 04:37:06;;;;;;;;;;;;;;;13.30;100.00;95959.00;10478114;28;1361;-79
2023/09/08 04:42:12;;;;;;;;;;;;;;;13.24;100.00;95962.84;10473123;28;5085;-79
2023/09/08 04:47:17;;;;;;;;;;;;;;;13.23;100.00;95969.31;10465811;28;1101;-78
2023/09/08 04:52:24;;;;;;;;;;;;;;;13.23;100.00;95964.75;10461163;28;1361;-77
2023/09/08 04:57:29;;;;;;;;;;;;;;;13.38;100.00;95979.97;10454111;28;1501;-80
2023/09/08 05:02:37;;;;;;;;;;;;;;;13.53;100.00;95981.69;10471944;28;1910;-78
2023/09/08 05:07:42;;;;;;;;;;;;;;;13.72;100.00;95976.34;10478264;28;1904;-77
2023/09/08 05:12:49;;;;;;;;;;;;;;;13.85;100.00;95975.66;10481590;28;1560;-78
2023/09/08 05:17:58;;;;;;;;;;;;;;;14.04;100.00;95979.19;10480726;28;1095;-78
2023/09/08 05:23:02;;;;;;;;;;;;;;;14.36;100.00;95974.19;10448353;28;1926;-78
2023/09/08 05:28:06;;;;;;;;;;;;;;;14.53;100.00;95975.31;10449787;28;1583;-79
2023/09/08 05:33:13;;;;;;;;;;;;;;;15.10;100.00;95972.50;10458428;28;1384;-79
2023/09/08 05:38:20;;;;;;;;;;;;;;;15.25;100.00;95974.94;10464293;28;1551;-78
2023/09/08 05:43:25;;;;;;;;;;;;;;;15.65;100.00;95973.41;10444215;28;5233;-77
2023/09/08 05:48:29;;;;;;;;;;;;;;;15.66;100.00;95977.72;10466030;28;1274;-78
2023/09/08 05:53:37;;;;;;;;;;;;;;;15.99;100.00;95974.91;10465607;28;1527;-78
2023/09/08 05:58:45;;;;;;;;;;;;;;;15.99;100.00;95983.03;10470572;28;1464;-78
2023/09/08 06:03:50;;;;;;;;;;;;;;;16.28;100.00;95984.59;10466022;28;1914;-79
2023/09/08 06:09:14;;;;;;;;;;;;;;;16.41;100.00;95990.00;10455148;28;1538;-78
2023/09/08 06:14:33;;;;;;;;;;;;;;;16.79;100.00;95986.19;10466271;28;1687;-78
2023/09/08 06:19:38;;;;;;;;;;;;;;;16.98;100.00;95975.94;10490359;28;1890;-79
2023/09/08 06:24:42;;;;;;;;;;;;;;;17.06;100.00;95977.94;10460651;28;1555;-79
2023/09/08 06:29:58;;;;;;;;;;;;;;;17.37;100.00;95977.13;10465188;28;1614;-78
2023/09/08 06:35:11;;;;;;;;;;;;;;;17.55;100.00;95984.25;10467774;28;1567;-79
2023/09/08 06:40:15;;;;;;;;;;;;;;;17.92;100.00;95980.28;10461076;28;5234;-79
2023/09/08 06:45:18;;;;;;;;;;;;;;;18.06;100.00;95986.41;10483681;28;1650;-77
2023/09/08 06:50:24;;;;;;;;;;;;;;;18.42;100.00;95987.28;10454595;28;1550;-78
2023/09/08 06:55:30;;;;;;;;;;;;;;;18.48;100.00;95984.09;10453306;28;2334;-78
2023/09/08 07:00:45;;;;;;;;;;;;;;;18.62;100.00;95986.66;10475849;28;1910;-78
2023/09/08 07:05:48;;;;;;;;;;;;;;;18.79;100.00;95980.47;10467181;28;1656;-78
2023/09/08 07:10:53;;;;;;;;;;;;;;;18.92;100.00;95975.97;10451472;28;1433;-79
2023/09/08 07:15:57;;;;;;;;;;;;;;;19.19;100.00;95983.78;10457378;28;1326;-77
2023/09/08 07:21:02;;;;;;;;;;;;;;;19.32;100.00;95982.78;10483467;28;1923;-76
2023/09/08 07:26:11;;;;;;;;;;;;;;;19.73;100.00;95981.44;10493917;28;1338;-78
2023/09/08 07:36:38;;;;;;;;;;;;;;;20.09;100.00;95966.47;10477050;28;1361;-78
2023/09/08 07:41:48;;;;;;;;;;;;;;;20.14;100.00;95969.81;10476439;28;5132;-78
2023/09/08 07:46:52;;;;;;;;;;;;;;;20.13;100.00;95981.06;10464589;28;1994;-79
2023/09/08 07:51:57;;;;;;;;;;;;;;;20.52;100.00;95972.50;10468196;28;2631;-79
2023/09/08 07:57:05;;;;;;;;;;;;;;;20.24;100.00;95976.84;10483532;28;1508;-78
2023/09/08 08:02:10;;;;;;;;;;;;;;;20.44;100.00;95981.53;10462324;28;1910;-77
2023/09/08 08:07:18;;;;;;;;;;;;;;;21.03;100.00;95975.94;10461139;28;1454;-79
2023/09/08 08:12:24;;;;;;;;;;;;;;;21.30;100.00;95980.03;10475807;28;1366;-78
2023/09/08 08:17:29;;;;;;;;;;;;;;;21.19;100.00;95978.06;10458792;28;1306;-78
2023/09/08 08:22:35;;;;;;;;;;;;;;;21.29;100.00;95966.72;10473309;28;1922;-78
2023/09/08 08:27:41;;;;;;;;;;;;;;;21.88;100.00;95969.09;10456569;28;1409;-80
2023/09/08 08:32:51;;;;;;;;;;;;;;;21.80;100.00;95970.00;10472720;28;1119;-79
2023/09/08 08:38:06;;;;;;;;;;;;;;;22.00;100.00;95969.09;10479099;28;1473;-79
2023/09/08 08:43:15;;;;;;;;;;;;;;;22.33;100.00;95970.94;10454335;28;5335;-78
2023/09/08 08:48:28;;;;;;;;;;;;;;;22.52;100.00;95968.44;10472406;28;1397;-78
2023/09/08 08:53:33;;;;;;;;;;;;;;;22.66;100.00;95968.84;10455035;28;1477;-79
2023/09/08 08:58:37;;;;;;;;;;;;;;;22.65;100.00;95960.97;10468501;28;1407;-79
2023/09/08 09:03:43;;;;;;;;;;;;;;;22.84;100.00;95958.41;10441975;28;1983;-78
2023/09/08 09:08:52;;;;;;;;;;;;;;;22.69;100.00;95952.84;10456900;28;1387;-80
2023/09/08 09:13:55;;;;;;;;;;;;;;;22.94;100.00;95959.88;10453284;28;1354;-77
2023/09/08 09:19:12;;;;;;;;;;;;;;;23.12;100.00;95952.94;10434082;28;1391;-78
2023/09/08 09:24:23;;;;;;;;;;;;;;;23.32;100.00;95948.38;10470778;28;1909;-78
2023/09/08 09:29:27;;;;;;;;;;;;;;;23.69;100.00;95945.47;10477484;28;1381;-78
2023/09/08 09:34:39;;;;;;;;;;;;;;;23.37;100.00;95950.09;10459803;28;1246;-78
2023/09/08 09:39:47;;;;;;;;;;;;;;;23.17;100.00;95949.97;10467488;28;1369;-79
2023/09/08 09:44:51;;;;;;;;;;;;;;;23.37;100.00;95953.63;10447656;28;5422;-78
2023/09/08 09:50:06;;;;;;;;;;;;;;;23.39;100.00;95942.28;10490983;28;1440;-78
2023/09/08 09:55:24;;;;;;;;;;;;;;;23.81;100.00;95933.59;10473010;28;1115;-78
2023/09/08 10:00:36;;;;;;;;;;;;;;;23.76;100.00;95936.59;10449719;28;1985;-78
2023/09/08 10:05:54;;;;;;;;;;;;;;;23.82;100.00;95921.47;10456961;28;1243;-79
2023/09/08 10:10:57;;;;;;;;;;;;;;;23.92;100.00;95921.72;10450229;28;1593;-78
2023/09/08 10:16:09;;;;;;;;;;;;;;;24.19;100.00;95919.22;10469185;28;1354;-78
2023/09/08 10:21:13;;;;;;;;;;;;;;;24.33;100.00;95921.47;10469980;28;1910;-78
2023/09/08 10:26:20;;;;;;;;;;;;;;;24.15;100.00;95916.38;10478413;28;1059;-79
2023/09/08 10:31:27;;;;;;;;;;;;;;;24.40;100.00;95913.41;10484772;28;1424;-79
2023/09/08 10:36:41;;;;;;;;;;;;;;;24.17;100.00;95908.56;10477089;28;1131;-78
2023/09/08 10:41:56;;;;;;;;;;;;;;;24.79;100.00;95906.00;10467474;28;5073;-79
2023/09/08 10:46:59;;;;;;;;;;;;;;;24.87;100.00;95904.97;10475856;28;1142;-80
2023/09/08 10:52:08;;;;;;;;;;;;;;;24.83;100.00;95909.63;10445744;28;1469;-79
2023/09/08 10:57:12;;;;;;;;;;;;;;;25.05;100.00;95897.91;10483591;28;1361;-79
2023/09/08 11:02:19;;;;;;;;;;;;;;;25.05;100.00;95894.34;10472321;28;1918;-79
2023/09/08 11:07:39;;;;;;;;;;;;;;;24.92;100.00;95903.91;10473431;28;1556;-79
2023/09/08 11:12:45;;;;;;;;;;;;;;;25.36;100.00;95900.81;10466196;28;1293;-79
2023/09/08 11:17:51;;;;;;;;;;;;;;;25.32;100.00;95898.81;10477483;28;1151;-79
2023/09/08 11:22:56;;;;;;;;;;;;;;;25.59;100.00;95902.44;10471463;28;1898;-78
2023/09/08 11:28:03;;;;;;;;;;;;;;;25.57;100.00;95895.69;10464345;28;1360;-79
2023/09/08 11:33:07;;;;;;;;;;;;;;;25.47;100.00;95907.31;10475525;28;1227;-78
2023/09/08 11:38:18;;;;;;;;;;;;;;;25.45;100.00;95899.44;10467900;28;2440;-78
2023/09/08 11:43:24;;;;;;;;;;;;;;;25.52;100.00;95898.75;10476719;28;5229;-78
2023/09/08 11:48:30;;;;;;;;;;;;;;;25.54;100.00;95890.94;10498471;28;1532;-77
2023/09/08 11:53:42;;;;;;;;;;;;;;;25.51;100.00;95892.47;10456781;28;1605;-78
2023/09/08 11:59:08;;;;;;;;;;;;;;;25.78;100.00;95890.59;10470662;28;1509;-79
2023/09/08 12:04:14;;;;;;;;;;;;;;;25.91;100.00;95887.63;10451176;28;1977;-80
2023/09/08 12:09:18;;;;;;;;;;;;;;;26.28;100.00;95888.59;10491311;28;1496;-78
2023/09/08 12:14:21;;;;;;;;;;;;;;;26.48;100.00;95891.25;10475858;28;1437;-78
2023/09/08 12:19:27;;;;;;;;;;;;;;;26.43;100.00;95880.53;10482083;28;1063;-77
2023/09/08 12:24:33;;;;;;;;;;;;;;;26.48;100.00;95877.47;10487305;28;1914;-80
2023/09/08 12:29:41;;;;;;;;;;;;;;;26.62;100.00;95878.44;10477471;28;1437;-80
2023/09/08 12:34:47;;;;;;;;;;;;;;;26.51;100.00;95879.47;10468579;28;2362;-77
2023/09/08 12:39:57;;;;;;;;;;;;;;;26.35;100.00;95891.44;10477686;28;1632;-78
2023/09/08 12:45:01;;;;;;;;;;;;;;;26.56;100.00;95874.41;10465157;28;1923;-77
2023/09/08 12:50:08;;;;;;;;;;;;;;;26.71;100.00;95874.59;10453970;28;1532;-78
2023/09/08 12:55:15;;;;;;;;;;;;;;;26.68;100.00;95873.38;10461393;28;1558;-78
2023/09/08 13:00:18;;;;;;;;;;;;;;;26.60;100.00;95866.22;10453109;28;1538;-79
2023/09/08 13:05:25;;;;;;;;;;;;;;;26.84;100.00;95868.44;10482881;28;1918;-78
2023/09/08 13:10:29;;;;;;;;;;;;;;;27.01;100.00;95861.56;10464173;28;1447;-78
2023/09/08 13:15:34;;;;;;;;;;;;;;;27.13;100.00;95857.78;10459626;28;1393;-78
2023/09/08 13:20:45;;;;;;;;;;;;;;;27.13;100.00;95852.25;10477891;28;1005;-78
2023/09/08 13:25:52;;;;;;;;;;;;;;;27.03;100.00;95855.66;10469237;28;1984;-78
2023/09/08 13:30:55;;;;;;;;;;;;;;;26.87;100.00;95850.38;10464156;28;2302;-79
2023/09/08 13:36:00;;;;;;;;;;;;;;;26.65;100.00;95854.81;10460226;28;1281;-79
2023/09/08 13:41:05;;;;;;;;;;;;;;;26.69;100.00;95850.16;10451903;28;5108;-78
2023/09/08 13:46:17;;;;;;;;;;;;;;;26.73;100.00;95845.50;10470752;28;1563;-77
2023/09/08 13:51:23;;;;;;;;;;;;;;;26.63;100.00;95838.66;10453133;28;1402;-78
2023/09/08 13:56:30;;;;;;;;;;;;;;;26.81;100.00;95844.38;10470491;28;1301;-79
2023/09/08 14:01:36;;;;;;;;;;;;;;;26.70;100.00;95832.44;10467609;28;1993;-77
2023/09/08 14:06:44;;;;;;;;;;;;;;;26.79;100.00;95832.94;10464565;28;1203;-79
2023/09/08 14:11:53;;;;;;;;;;;;;;;26.48;100.00;95830.59;10474398;28;1337;-79
2023/09/08 14:17:19;;;;;;;;;;;;;;;26.62;100.00;95833.53;10472672;28;914;-78
2023/09/08 14:22:22;;;;;;;;;;;;;;;26.48;100.00;95822.34;10471863;28;1914;-80
2023/09/08 14:27:29;;;;;;;;;;;;;;;26.54;100.00;95818.09;10449830;28;2322;-78
2023/09/08 14:32:32;;;;;;;;;;;;;;;26.58;100.00;95816.94;10470444;28;1532;-79
2023/09/08 14:37:35;;;;;;;;;;;;;;;26.64;100.00;95820.94;10453347;28;1626;-80
2023/09/08 14:42:45;;;;;;;;;;;;;;;26.76;100.00;95808.88;10468687;28;1985;-78
2023/09/08 14:47:52;;;;;;;;;;;;;;;26.69;100.00;95800.53;10491559;28;1565;-78
2023/09/08 14:53:08;;;;;;;;;;;;;;;26.54;100.00;95809.81;10451293;28;1593;-79
2023/09/08 14:58:33;;;;;;;;;;;;;;;26.36;100.00;95813.09;10444838;28;1475;-79
2023/09/08 15:03:39;;;;;;;;;;;;;;;26.32;100.00;95815.00;10469226;28;1983;-79
2023/09/08 15:08:45;;;;;;;;;;;;;;;26.29;100.00;95810.25;10472920;28;1436;-79
2023/09/08 15:13:50;;;;;;;;;;;;;;;26.00;100.00;95817.34;10453499;28;1409;-79
2023/09/08 15:19:10;;;;;;;;;;;;;;;25.85;100.00;95829.31;10479178;28;1151;-79
2023/09/08 15:24:13;;;;;;;;;;;;;;;25.83;100.00;95817.88;10466900;28;2454;-78
2023/09/08 15:29:20;;;;;;;;;;;;;;;25.78;100.00;95813.50;10454393;28;1362;-79
2023/09/08 15:34:27;;;;;;;;;;;;;;;25.73;100.00;95813.00;10486283;28;1177;-79
2023/09/08 15:39:32;;;;;;;;;;;;;;;25.68;100.00;95813.28;10451784;28;1425;-80
2023/09/08 15:44:48;;;;;;;;;;;;;;;25.60;100.00;95812.38;10467833;28;5395;-79
2023/09/08 15:49:54;;;;;;;;;;;;;;;25.47;100.00;95800.00;10481369;28;1170;-79
2023/09/08 15:54:58;;;;;;;;;;;;;;;25.36;100.00;95804.53;10491273;28;1897;-79
2023/09/08 16:00:06;;;;;;;;;;;;;;;25.28;100.00;95801.66;10482671;28;1349;-79
2023/09/08 16:05:12;;;;;;;;;;;;;;;25.21;100.00;95804.28;10471677;28;1985;-77
2023/09/08 16:10:18;;;;;;;;;;;;;;;25.18;100.00;95806.97;10483096;28;999;-79
2023/09/08 16:15:22;;;;;;;;;;;;;;;25.06;100.00;95799.69;10477937;28;1511;-79
2023/09/08 16:20:25;;;;;;;;;;;;;;;25.01;100.00;95809.03;10491799;28;2635;-79
2023/09/08 16:25:29;;;;;;;;;;;;;;;24.91;100.00;95811.56;10466397;28;1933;-79
2023/09/08 16:30:40;;;;;;;;;;;;;;;24.82;100.00;95809.06;10479740;28;1546;-79
2023/09/08 16:35:46;;;;;;;;;;;;;;;24.73;100.00;95805.72;10460417;28;1550;-80
2023/09/08 16:40:50;;;;;;;;;;;;;;;24.69;100.00;95805.69;10466165;28;5319;-79
2023/09/08 16:45:57;;;;;;;;;;;;;;;24.54;100.00;95806.56;10484027;28;1918;-80
2023/09/08 16:51:01;;;;;;;;;;;;;;;24.49;100.00;95812.34;10478730;28;1401;-79
2023/09/08 16:56:13;;;;;;;;;;;;;;;24.36;100.00;95813.63;10487929;28;1350;-79
2023/09/08 17:01:19;;;;;;;;;;;;;;;24.22;100.00;95811.34;10480842;28;1396;-79
2023/09/08 17:06:24;;;;;;;;;;;;;;;24.14;100.00;95813.16;10459520;28;1981;-78
2023/09/08 17:11:28;;;;;;;;;;;;;;;24.00;100.00;95815.63;10477078;28;1048;-78
2023/09/08 17:16:34;;;;;;;;;;;;;;;23.87;100.00;95816.88;10485718;28;2405;-79
2023/09/08 17:21:38;;;;;;;;;;;;;;;23.67;100.00;95822.34;10437487;28;1512;-80
2023/09/08 17:26:41;;;;;;;;;;;;;;;23.52;100.00;95830.53;10464615;28;1905;-78
2023/09/08 17:31:49;;;;;;;;;;;;;;;23.35;100.00;95827.00;10491179;28;1858;-80
2023/09/08 17:36:56;;;;;;;;;;;;;;;23.17;100.00;95834.78;10482711;28;1311;-79
2023/09/08 17:42:13;;;;;;;;;;;;;;;23.03;100.00;95831.69;10469151;28;5100;-80
2023/09/08 17:47:17;;;;;;;;;;;;;;;22.89;100.00;95843.06;10475189;28;975;-79
2023/09/08 17:52:21;;;;;;;;;;;;;;;22.79;100.00;95845.50;10474277;28;997;-79
2023/09/08 17:57:25;;;;;;;;;;;;;;;22.62;100.00;95850.13;10472105;28;1454;-79
2023/09/08 18:02:28;;;;;;;;;;;;;;;22.31;100.00;95853.53;10474173;28;1918;-79
2023/09/08 18:07:47;;;;;;;;;;;;;;;22.18;100.00;95860.19;10477134;28;1381;-78
2023/09/08 18:12:54;;;;;;;;;;;;;;;22.09;100.00;95860.34;10454443;28;2326;-80
2023/09/08 18:17:57;;;;;;;;;;;;;;;21.89;100.00;95864.00;10491155;28;1520;-79
2023/09/08 18:23:01;;;;;;;;;;;;;;;21.81;100.00;95864.88;10443536;28;1914;-78
2023/09/08 18:28:07;;;;;;;;;;;;;;;21.76;100.00;95870.63;10472553;28;1509;-79
2023/09/08 18:33:10;;;;;;;;;;;;;;;21.61;100.00;95868.53;10472484;28;1202;-80
2023/09/08 18:38:15;;;;;;;;;;;;;;;21.47;100.00;95866.16;10471029;28;1479;-80
2023/09/08 18:43:18;;;;;;;;;;;;;;;21.42;100.00;95858.97;10468378;28;5100;-79
2023/09/08 18:48:29;;;;;;;;;;;;;;;21.28;100.00;95863.94;10470039;28;1234;-80
2023/09/08 18:53:41;;;;;;;;;;;;;;;21.12;100.00;95872.00;10449438;28;1400;-80
2023/09/08 18:58:54;;;;;;;;;;;;;;;20.89;100.00;95876.28;10465834;28;1629;-79
2023/09/08 19:04:16;;;;;;;;;;;;;;;20.80;100.00;95873.59;10463965;28;1926;-80
2023/09/08 19:09:28;;;;;;;;;;;;;;;20.65;100.00;95874.25;10480163;28;2330;-79
2023/09/08 19:14:33;;;;;;;;;;;;;;;20.71;100.00;95875.63;10467948;28;1558;-80
2023/09/08 19:19:38;;;;;;;;;;;;;;;20.42;100.00;95877.31;10489444;28;1590;-79
2023/09/08 19:24:45;;;;;;;;;;;;;;;20.38;100.00;95894.69;10472416;28;1980;-79
2023/09/08 19:29:54;;;;;;;;;;;;;;;20.19;100.00;95892.41;10451093;28;1361;-80
2023/09/08 19:35:00;;;;;;;;;;;;;;;20.02;100.00;95893.31;10469025;28;1356;-79
2023/09/08 19:40:03;;;;;;;;;;;;;;;19.93;100.00;95885.19;10473689;28;5085;-80
2023/09/08 19:45:08;;;;;;;;;;;;;;;19.90;100.00;95885.84;10436494;28;1992;-80
2023/09/08 19:50:11;;;;;;;;;;;;;;;19.87;100.00;95891.97;10470995;28;1243;-79
2023/09/08 19:55:21;;;;;;;;;;;;;;;19.84;100.00;95892.63;10485916;28;1499;-80
2023/09/08 20:00:27;;;;;;;;;;;;;;;19.79;100.00;95892.03;10474204;28;1395;-79
2023/09/08 20:05:31;;;;;;;;;;;;;;;19.67;100.00;95890.00;10476635;28;2449;-79
2023/09/08 20:10:38;;;;;;;;;;;;;;;19.52;100.00;95896.75;10483756;28;1366;-81
2023/09/08 20:15:58;;;;;;;;;;;;;;;19.42;100.00;95892.50;10472760;28;1409;-80
2023/09/08 20:21:08;;;;;;;;;;;;;;;19.43;100.00;95902.25;10473866;28;1410;-80
2023/09/08 20:26:14;;;;;;;;;;;;;;;19.32;100.00;95898.28;10476519;28;1975;-81
2023/09/08 20:31:16;;;;;;;;;;;;;;;19.23;100.00;95892.09;10457164;28;1406;-80
2023/09/08 20:36:22;;;;;;;;;;;;;;;19.18;100.00;95897.72;10493190;28;1370;-80
2023/09/08 20:41:30;;;;;;;;;;;;;;;19.07;100.00;95896.44;10449412;28;1415;-80
2023/09/08 20:46:34;;;;;;;;;;;;;;;18.99;100.00;95895.34;10454425;28;1910;-80
2023/09/08 20:56:57;;;;;;;;;;;;;;;18.94;100.00;95897.44;10459739;28;1397;-80
2023/09/08 21:02:07;;;;;;;;;;;;;;;18.88;100.00;95888.63;10435100;28;2331;-80
2023/09/08 21:07:12;;;;;;;;;;;;;;;18.87;100.00;95893.28;10460204;28;1973;-79
2023/09/08 21:12:15;;;;;;;;;;;;;;;18.76;100.00;95897.47;10482938;28;1486;-78
2023/09/08 21:17:23;;;;;;;;;;;;;;;18.67;100.00;95899.41;10487603;28;992;-78
2023/09/08 21:22:31;;;;;;;;;;;;;;;18.67;100.00;95902.13;10479769;28;1369;-80
2023/09/08 21:27:35;;;;;;;;;;;;;;;18.57;100.00;95902.41;10465931;28;1917;-79
2023/09/08 21:32:46;;;;;;;;;;;;;;;18.55;100.00;95894.59;10476120;28;1203;-80
2023/09/08 21:38:03;;;;;;;;;;;;;;;18.54;100.00;95903.06;10462941;28;1540;-78
2023/09/08 21:53:48;;;;;;;;;;;;;;;18.37;100.00;95901.94;10472306;28;1401;-80
2023/09/08 21:59:01;;;;;;;;;;;;;;;18.29;100.00;95894.59;10451660;28;2433;-80
2023/09/08 22:04:06;;;;;;;;;;;;;;;18.27;100.00;95902.28;10458780;28;1914;-80
2023/09/08 22:09:10;;;;;;;;;;;;;;;18.19;100.00;95899.53;10470303;28;1210;-80
2023/09/08 22:14:14;;;;;;;;;;;;;;;18.22;100.00;95899.72;10448299;28;1386;-78
2023/09/08 22:24:42;;;;;;;;;;;;;;;18.12;100.00;95897.28;10460244;28;1984;-79
2023/09/08 22:29:47;;;;;;;;;;;;;;;18.03;100.00;95888.31;10489244;28;1452;-78
2023/09/08 22:34:55;;;;;;;;;;;;;;;18.07;100.00;95892.03;10468998;28;1185;-78
2023/09/08 22:40:06;;;;;;;;;;;;;;;18.05;100.00;95894.25;10459642;28;1428;-79
2023/09/08 22:45:11;;;;;;;;;;;;;;;17.94;100.00;95888.31;10471838;28;1917;-79
2023/09/08 22:50:15;;;;;;;;;;;;;;;17.93;100.00;95880.47;10492434;28;1008;-79
2023/09/08 22:55:29;;;;;;;;;;;;;;;17.75;100.00;95888.59;10459248;28;2220;-79
2023/09/08 23:00:38;;;;;;;;;;;;;;;17.92;100.00;95898.69;10482434;28;1513;-79
2023/09/08 23:05:45;;;;;;;;;;;;;;;17.87;100.00;95887.16;10477730;28;1979;-80
2023/09/08 23:10:57;;;;;;;;;;;;;;;17.85;100.00;95892.13;10495461;28;1193;-79
2023/09/08 23:16:01;;;;;;;;;;;;;;;17.76;100.00;95892.13;10477671;28;1647;-78
2023/09/08 23:21:09;;;;;;;;;;;;;;;17.72;100.00;95896.56;10483016;28;1579;-79
2023/09/08 23:26:13;;;;;;;;;;;;;;;17.53;100.00;95886.75;10485068;28;1986;-78
2023/09/08 23:31:17;;;;;;;;;;;;;;;17.47;100.00;95881.75;10484169;28;1652;-77
2023/09/08 23:36:24;;;;;;;;;;;;;;;17.54;100.00;95884.81;10461894;28;1345;-78
2023/09/08 23:41:33;;;;;;;;;;;;;;;17.39;100.00;95888.78;10507760;28;1183;-78
2023/09/08 23:46:41;;;;;;;;;;;;;;;17.33;100.00;95884.59;10476989;28;1987;-78
2023/09/08 23:51:45;;;;;;;;;;;;;;;17.38;100.00;95881.75;10463587;28;2312;-79
2023/09/08 23:56:50;;;;;;;;;;;;;;;17.42;100.00;95866.38;10482615;28;1303;-79
